sensor_id;sensor_type;location;lat;lon;timestamp;temperature;humidity
9041;DHT22;4555;49.918;7.012;2022-08-03T00:16:09;18.90;99.90
9041;DHT22;4555;49.918;7.012;2022-08-03T00:18:36;18.90;99.90
9041;DHT22;4555;49.918;7.012;2022-08-03T00:25:54;19.00;99.90
9041;DHT22;4555;49.918;7.012;2022-08-03T00:28:19;18.90;99.90
9041;DHT22;4555;49.918;7.012;2022-08-03T00:30:45;18.80;99.90
9041;DHT22;4555;49.918;7.012;2022-08-03T00:43:01;18.00;99.90
9041;DHT22;4555;49.918;7.012;2022-08-03T00:45:32;17.90;99.90
9041;DHT22;4555;49.918;7.012;2022-08-03T00:47:59;17.90;99.90
9041;DHT22;4555;49.918;7.012;2022-08-03T00:50:27;18.00;99.90
9041;DHT22;4555;49.918;7.012;2022-08-03T00:52:55;18.00;99.90
9041;DHT22;4555;49.918;7.012;2022-08-03T00:57:48;18.10;99.90
9041;DHT22;4555;49.918;7.012;2022-08-03T01:00:17;18.00;99.90
9041;DHT22;4555;49.918;7.012;2022-08-03T01:08:14;17.80;99.90
9041;DHT22;4555;49.918;7.012;2022-08-03T01:16:25;17.70;99.90
9041;DHT22;4555;49.918;7.012;2022-08-03T01:22:10;17.70;99.90
9041;DHT22;4555;49.918;7.012;2022-08-03T01:25:05;17.70;99.90
9041;DHT22;4555;49.918;7.012;2022-08-03T01:27:53;17.50;99.90
9041;DHT22;4555;49.918;7.012;2022-08-03T01:32:56;17.40;99.90
9041;DHT22;4555;49.918;7.012;2022-08-03T01:35:32;17.40;99.90
9041;DHT22;4555;49.918;7.012;2022-08-03T01:38:10;17.50;99.90
9041;DHT22;4555;49.918;7.012;2022-08-03T01:40:39;17.50;99.90
9041;DHT22;4555;49.918;7.012;2022-08-03T01:43:06;17.40;99.90
9041;DHT22;4555;49.918;7.012;2022-08-03T01:47:59;17.30;99.90
9041;DHT22;4555;49.918;7.012;2022-08-03T01:50:28;17.30;72.90
9041;DHT22;4555;49.918;7.012;2022-08-03T01:52:55;17.20;81.30
9041;DHT22;4555;49.918;7.012;2022-08-03T01:55:24;17.10;88.70
9041;DHT22;4555;49.918;7.012;2022-08-03T01:57:52;17.10;99.50
9041;DHT22;4555;49.918;7.012;2022-08-03T02:00:18;17.10;99.90
9041;DHT22;4555;49.918;7.012;2022-08-03T02:02:46;17.10;99.90
9041;DHT22;4555;49.918;7.012;2022-08-03T02:05:14;17.10;99.90
9041;DHT22;4555;49.918;7.012;2022-08-03T02:10:08;17.10;99.40
9041;DHT22;4555;49.918;7.012;2022-08-03T02:12:36;17.10;95.90
9041;DHT22;4555;49.918;7.012;2022-08-03T02:15:03;17.10;99.90
9041;DHT22;4555;49.918;7.012;2022-08-03T02:17:31;17.00;99.90
9041;DHT22;4555;49.918;7.012;2022-08-03T02:19:59;17.00;98.00
9041;DHT22;4555;49.918;7.012;2022-08-03T02:22:26;17.00;99.90
9041;DHT22;4555;49.918;7.012;2022-08-03T02:27:22;16.90;99.90
9041;DHT22;4555;49.918;7.012;2022-08-03T02:29:51;16.80;99.90
9041;DHT22;4555;49.918;7.012;2022-08-03T02:32:20;16.70;99.90
9041;DHT22;4555;49.918;7.012;2022-08-03T02:34:51;16.60;99.90
9041;DHT22;4555;49.918;7.012;2022-08-03T02:37:19;16.50;99.90
9041;DHT22;4555;49.918;7.012;2022-08-03T02:39:46;16.40;99.90
9041;DHT22;4555;49.918;7.012;2022-08-03T02:42:15;16.40;99.90
9041;DHT22;4555;49.918;7.012;2022-08-03T02:44:47;16.30;99.90
9041;DHT22;4555;49.918;7.012;2022-08-03T02:47:14;16.30;99.90
9041;DHT22;4555;49.918;7.012;2022-08-03T02:49:42;16.40;99.90
9041;DHT22;4555;49.918;7.012;2022-08-03T02:52:10;16.50;99.90
9041;DHT22;4555;49.918;7.012;2022-08-03T02:54:37;16.40;99.90
9041;DHT22;4555;49.918;7.012;2022-08-03T02:57:07;16.40;99.90
9041;DHT22;4555;49.918;7.012;2022-08-03T02:59:34;16.30;99.90
9041;DHT22;4555;49.918;7.012;2022-08-03T03:02:01;16.40;99.90
9041;DHT22;4555;49.918;7.012;2022-08-03T03:04:28;16.30;99.90
9041;DHT22;4555;49.918;7.012;2022-08-03T03:09:22;16.30;99.90
9041;DHT22;4555;49.918;7.012;2022-08-03T03:11:48;16.30;99.90
9041;DHT22;4555;49.918;7.012;2022-08-03T03:14:16;16.20;99.90
9041;DHT22;4555;49.918;7.012;2022-08-03T03:16:44;16.20;99.90
9041;DHT22;4555;49.918;7.012;2022-08-03T03:19:13;16.20;99.90
9041;DHT22;4555;49.918;7.012;2022-08-03T03:21:41;16.10;99.90
9041;DHT22;4555;49.918;7.012;2022-08-03T03:24:08;16.10;99.90
9041;DHT22;4555;49.918;7.012;2022-08-03T03:26:34;17.50;99.90
9041;DHT22;4555;49.918;7.012;2022-08-03T03:29:01;15.90;99.90
9041;DHT22;4555;49.918;7.012;2022-08-03T03:31:27;15.90;99.90
9041;DHT22;4555;49.918;7.012;2022-08-03T03:33:56;15.90;99.90
9041;DHT22;4555;49.918;7.012;2022-08-03T03:51:00;15.70;99.90
9041;DHT22;4555;49.918;7.012;2022-08-03T03:55:52;15.60;99.90
9041;DHT22;4555;49.918;7.012;2022-08-03T03:58:19;15.60;99.90
9041;DHT22;4555;49.918;7.012;2022-08-03T04:08:22;15.70;99.90
9041;DHT22;4555;49.918;7.012;2022-08-03T04:11:26;15.70;99.90
9041;DHT22;4555;49.918;7.012;2022-08-03T04:14:05;15.80;99.90
9041;DHT22;4555;49.918;7.012;2022-08-03T04:16:38;15.90;99.90
9041;DHT22;4555;49.918;7.012;2022-08-03T04:19:09;15.90;99.90
9041;DHT22;4555;49.918;7.012;2022-08-03T04:21:43;15.90;99.90
9041;DHT22;4555;49.918;7.012;2022-08-03T04:24:12;15.90;99.90
9041;DHT22;4555;49.918;7.012;2022-08-03T04:26:40;15.80;99.90
9041;DHT22;4555;49.918;7.012;2022-08-03T04:29:08;15.70;99.90
9041;DHT22;4555;49.918;7.012;2022-08-03T04:31:37;15.60;99.90
9041;DHT22;4555;49.918;7.012;2022-08-03T04:36:32;15.60;99.90
9041;DHT22;4555;49.918;7.012;2022-08-03T04:39:09;15.50;99.90
9041;DHT22;4555;49.918;7.012;2022-08-03T04:44:12;15.70;99.90
9041;DHT22;4555;49.918;7.012;2022-08-03T04:46:39;15.70;99.90
9041;DHT22;4555;49.918;7.012;2022-08-03T04:49:05;15.60;99.90
9041;DHT22;4555;49.918;7.012;2022-08-03T04:51:32;15.60;99.90
9041;DHT22;4555;49.918;7.012;2022-08-03T04:58:55;15.70;99.90
9041;DHT22;4555;49.918;7.012;2022-08-03T05:03:47;15.80;99.90
9041;DHT22;4555;49.918;7.012;2022-08-03T05:11:05;15.80;99.90
9041;DHT22;4555;49.918;7.012;2022-08-03T05:20:49;16.60;99.90
9041;DHT22;4555;49.918;7.012;2022-08-03T05:23:14;16.70;99.90
9041;DHT22;4555;49.918;7.012;2022-08-03T05:25:40;17.00;99.90
9041;DHT22;4555;49.918;7.012;2022-08-03T05:28:05;17.40;8.20
9041;DHT22;4555;49.918;7.012;2022-08-03T05:30:31;17.80;1.00
9041;DHT22;4555;49.918;7.012;2022-08-03T05:35:24;18.60;1.00
9041;DHT22;4555;49.918;7.012;2022-08-03T05:37:50;18.70;1.00
9041;DHT22;4555;49.918;7.012;2022-08-03T05:40:16;19.10;1.00
9041;DHT22;4555;49.918;7.012;2022-08-03T05:45:08;19.60;99.90
9041;DHT22;4555;49.918;7.012;2022-08-03T05:47:42;19.60;99.90
9041;DHT22;4555;49.918;7.012;2022-08-03T05:50:10;20.40;99.90
9041;DHT22;4555;49.918;7.012;2022-08-03T05:52:36;20.40;99.90
9041;DHT22;4555;49.918;7.012;2022-08-03T05:55:03;20.70;99.90
9041;DHT22;4555;49.918;7.012;2022-08-03T05:57:29;21.10;99.90
9041;DHT22;4555;49.918;7.012;2022-08-03T05:59:55;21.70;99.90
9041;DHT22;4555;49.918;7.012;2022-08-03T06:02:20;21.70;99.90
9041;DHT22;4555;49.918;7.012;2022-08-03T06:04:46;22.40;78.90
9041;DHT22;4555;49.918;7.012;2022-08-03T06:07:11;24.20;74.10
9041;DHT22;4555;49.918;7.012;2022-08-03T06:09:37;22.50;57.60
9041;DHT22;4555;49.918;7.012;2022-08-03T06:12:03;22.70;56.70
9041;DHT22;4555;49.918;7.012;2022-08-03T06:14:29;22.80;35.40
9041;DHT22;4555;49.918;7.012;2022-08-03T06:16:54;22.70;43.30
9041;DHT22;4555;49.918;7.012;2022-08-03T06:31:31;23.80;1.00
9041;DHT22;4555;49.918;7.012;2022-08-03T06:33:57;24.10;1.00
9041;DHT22;4555;49.918;7.012;2022-08-03T06:36:22;24.40;1.00
9041;DHT22;4555;49.918;7.012;2022-08-03T06:38:50;25.20;99.90
9041;DHT22;4555;49.918;7.012;2022-08-03T06:41:15;24.70;99.90
9041;DHT22;4555;49.918;7.012;2022-08-03T06:43:41;24.80;99.90
9041;DHT22;4555;49.918;7.012;2022-08-03T06:46:07;26.30;99.90
9041;DHT22;4555;49.918;7.012;2022-08-03T06:48:32;25.20;99.90
9041;DHT22;4555;49.918;7.012;2022-08-03T06:50:58;24.90;99.90
9041;DHT22;4555;49.918;7.012;2022-08-03T06:53:24;25.00;99.90
9041;DHT22;4555;49.918;7.012;2022-08-03T06:55:50;25.50;99.90
9041;DHT22;4555;49.918;7.012;2022-08-03T06:58:15;25.60;99.90
9041;DHT22;4555;49.918;7.012;2022-08-03T07:00:41;26.20;99.90
9041;DHT22;4555;49.918;7.012;2022-08-03T07:03:06;26.00;99.90
9041;DHT22;4555;49.918;7.012;2022-08-03T07:05:32;26.40;99.90
9041;DHT22;4555;49.918;7.012;2022-08-03T07:07:59;26.40;99.90
9041;DHT22;4555;49.918;7.012;2022-08-03T07:10:27;26.60;99.90
9041;DHT22;4555;49.918;7.012;2022-08-03T07:12:53;26.90;99.90
9041;DHT22;4555;49.918;7.012;2022-08-03T07:15:19;26.90;99.90
9041;DHT22;4555;49.918;7.012;2022-08-03T07:17:45;27.00;99.90
9041;DHT22;4555;49.918;7.012;2022-08-03T07:20:11;27.20;99.90
9041;DHT22;4555;49.918;7.012;2022-08-03T07:22:37;27.30;99.90
9041;DHT22;4555;49.918;7.012;2022-08-03T07:25:03;27.60;94.00
9041;DHT22;4555;49.918;7.012;2022-08-03T07:27:29;27.60;71.70
9041;DHT22;4555;49.918;7.012;2022-08-03T07:29:57;27.40;69.90
9041;DHT22;4555;49.918;7.012;2022-08-03T07:37:15;28.20;60.10
9041;DHT22;4555;49.918;7.012;2022-08-03T07:42:06;28.40;52.10
9041;DHT22;4555;49.918;7.012;2022-08-03T07:44:32;29.70;64.60
9041;DHT22;4555;49.918;7.012;2022-08-03T07:46:58;28.90;43.90
9041;DHT22;4555;49.918;7.012;2022-08-03T07:49:23;29.30;57.70
9041;DHT22;4555;49.918;7.012;2022-08-03T07:51:49;28.80;49.40
9041;DHT22;4555;49.918;7.012;2022-08-03T07:54:34;28.90;47.90
9041;DHT22;4555;49.918;7.012;2022-08-03T07:57:00;28.90;33.00
9041;DHT22;4555;49.918;7.012;2022-08-03T07:59:26;28.90;45.80
9041;DHT22;4555;49.918;7.012;2022-08-03T08:01:51;29.70;29.60
9041;DHT22;4555;49.918;7.012;2022-08-03T08:04:18;29.70;39.10
9041;DHT22;4555;49.918;7.012;2022-08-03T08:06:44;29.90;35.80
9041;DHT22;4555;49.918;7.012;2022-08-03T08:09:09;30.10;19.80
9041;DHT22;4555;49.918;7.012;2022-08-03T08:11:36;30.00;18.40
9041;DHT22;4555;49.918;7.012;2022-08-03T08:14:02;30.20;28.30
9041;DHT22;4555;49.918;7.012;2022-08-03T08:16:28;30.30;24.60
9041;DHT22;4555;49.918;7.012;2022-08-03T08:21:20;30.70;3.20
9041;DHT22;4555;49.918;7.012;2022-08-03T08:23:45;30.80;12.60
9041;DHT22;4555;49.918;7.012;2022-08-03T08:26:11;30.70;1.00
9041;DHT22;4555;49.918;7.012;2022-08-03T08:35:55;31.40;1.00
9041;DHT22;4555;49.918;7.012;2022-08-03T08:38:22;31.40;2.70
9041;DHT22;4555;49.918;7.012;2022-08-03T08:40:49;28.40;1.00
9041;DHT22;4555;49.918;7.012;2022-08-03T08:43:14;32.20;1.00
9041;DHT22;4555;49.918;7.012;2022-08-03T08:48:08;32.40;1.00
9041;DHT22;4555;49.918;7.012;2022-08-03T08:50:36;32.90;1.00
9041;DHT22;4555;49.918;7.012;2022-08-03T08:53:05;32.90;1.00
9041;DHT22;4555;49.918;7.012;2022-08-03T08:55:33;32.80;1.00
9041;DHT22;4555;49.918;7.012;2022-08-03T08:58:04;32.90;1.00
9041;DHT22;4555;49.918;7.012;2022-08-03T09:00:30;33.20;1.00
9041;DHT22;4555;49.918;7.012;2022-08-03T09:02:56;33.10;1.00
9041;DHT22;4555;49.918;7.012;2022-08-03T09:05:22;32.80;1.00
9041;DHT22;4555;49.918;7.012;2022-08-03T09:07:48;32.80;1.00
9041;DHT22;4555;49.918;7.012;2022-08-03T09:10:15;33.30;1.00
9041;DHT22;4555;49.918;7.012;2022-08-03T09:12:48;33.30;1.00
9041;DHT22;4555;49.918;7.012;2022-08-03T09:15:23;33.40;1.00
9041;DHT22;4555;49.918;7.012;2022-08-03T09:17:51;33.30;1.00
9041;DHT22;4555;49.918;7.012;2022-08-03T09:20:18;33.60;1.00
9041;DHT22;4555;49.918;7.012;2022-08-03T09:23:10;34.00;1.00
9041;DHT22;4555;49.918;7.012;2022-08-03T09:25:38;34.20;1.00
9041;DHT22;4555;49.918;7.012;2022-08-03T09:30:31;34.30;1.00
9041;DHT22;4555;49.918;7.012;2022-08-03T09:33:02;34.10;1.00
9041;DHT22;4555;49.918;7.012;2022-08-03T09:35:28;34.10;1.00
9041;DHT22;4555;49.918;7.012;2022-08-03T09:38:11;34.40;1.00
9041;DHT22;4555;49.918;7.012;2022-08-03T09:43:03;34.80;1.00
9041;DHT22;4555;49.918;7.012;2022-08-03T09:45:29;34.90;1.00
9041;DHT22;4555;49.918;7.012;2022-08-03T09:50:22;35.00;1.00
9041;DHT22;4555;49.918;7.012;2022-08-03T09:52:50;34.90;1.00
9041;DHT22;4555;49.918;7.012;2022-08-03T09:55:16;35.20;1.00
9041;DHT22;4555;49.918;7.012;2022-08-03T09:57:44;35.30;1.00
9041;DHT22;4555;49.918;7.012;2022-08-03T10:00:15;35.40;1.00
9041;DHT22;4555;49.918;7.012;2022-08-03T10:02:42;35.50;1.00
9041;DHT22;4555;49.918;7.012;2022-08-03T10:05:11;35.50;1.00
9041;DHT22;4555;49.918;7.012;2022-08-03T10:07:48;35.60;1.00
9041;DHT22;4555;49.918;7.012;2022-08-03T10:10:15;35.70;1.00
9041;DHT22;4555;49.918;7.012;2022-08-03T10:12:43;35.70;1.00
9041;DHT22;4555;49.918;7.012;2022-08-03T10:15:09;36.00;1.00
9041;DHT22;4555;49.918;7.012;2022-08-03T10:17:36;36.20;1.00
9041;DHT22;4555;49.918;7.012;2022-08-03T10:20:05;36.40;1.00
9041;DHT22;4555;49.918;7.012;2022-08-03T10:22:34;36.50;1.00
9041;DHT22;4555;49.918;7.012;2022-08-03T10:27:33;36.70;1.00
9041;DHT22;4555;49.918;7.012;2022-08-03T10:30:07;36.20;1.00
9041;DHT22;4555;49.918;7.012;2022-08-03T10:32:39;36.30;1.00
9041;DHT22;4555;49.918;7.012;2022-08-03T10:35:14;36.20;1.00
9041;DHT22;4555;49.918;7.012;2022-08-03T10:37:46;36.30;1.00
9041;DHT22;4555;49.918;7.012;2022-08-03T10:40:15;36.20;1.00
9041;DHT22;4555;49.918;7.012;2022-08-03T10:42:45;36.30;1.00
9041;DHT22;4555;49.918;7.012;2022-08-03T10:45:18;36.50;1.00
9041;DHT22;4555;49.918;7.012;2022-08-03T10:47:46;36.60;1.00
9041;DHT22;4555;49.918;7.012;2022-08-03T10:50:12;36.40;1.00
9041;DHT22;4555;49.918;7.012;2022-08-03T10:52:55;36.40;1.00
9041;DHT22;4555;49.918;7.012;2022-08-03T10:55:40;36.60;1.00
9041;DHT22;4555;49.918;7.012;2022-08-03T10:58:48;36.30;1.00
9041;DHT22;4555;49.918;7.012;2022-08-03T11:01:15;36.50;1.00
9041;DHT22;4555;49.918;7.012;2022-08-03T11:08:46;36.80;1.00
9041;DHT22;4555;49.918;7.012;2022-08-03T11:14:05;37.30;1.00
9041;DHT22;4555;49.918;7.012;2022-08-03T11:16:38;37.30;1.00
9041;DHT22;4555;49.918;7.012;2022-08-03T11:19:12;37.30;1.00
9041;DHT22;4555;49.918;7.012;2022-08-03T11:27:19;37.30;1.00
9041;DHT22;4555;49.918;7.012;2022-08-03T11:29:59;37.30;1.00
9041;DHT22;4555;49.918;7.012;2022-08-03T11:35:15;37.30;1.00
9041;DHT22;4555;49.918;7.012;2022-08-03T11:40:44;37.60;1.00
9041;DHT22;4555;49.918;7.012;2022-08-03T11:46:07;37.50;1.00
9041;DHT22;4555;49.918;7.012;2022-08-03T11:51:03;37.50;1.00
9041;DHT22;4555;49.918;7.012;2022-08-03T11:53:29;37.50;1.00
9041;DHT22;4555;49.918;7.012;2022-08-03T11:55:58;37.30;1.00
9041;DHT22;4555;49.918;7.012;2022-08-03T11:58:24;37.30;1.00
9041;DHT22;4555;49.918;7.012;2022-08-03T12:00:50;37.60;1.00
9041;DHT22;4555;49.918;7.012;2022-08-03T12:03:19;37.80;1.00
9041;DHT22;4555;49.918;7.012;2022-08-03T12:05:51;37.90;1.00
9041;DHT22;4555;49.918;7.012;2022-08-03T12:10:55;37.60;1.00
9041;DHT22;4555;49.918;7.012;2022-08-03T12:13:21;37.60;1.00
9041;DHT22;4555;49.918;7.012;2022-08-03T12:15:52;37.70;1.00
9041;DHT22;4555;49.918;7.012;2022-08-03T12:18:18;37.70;1.00
9041;DHT22;4555;49.918;7.012;2022-08-03T12:20:46;37.70;1.00
9041;DHT22;4555;49.918;7.012;2022-08-03T12:23:12;37.80;1.00
9041;DHT22;4555;49.918;7.012;2022-08-03T12:25:39;37.80;1.00
9041;DHT22;4555;49.918;7.012;2022-08-03T12:30:39;38.20;1.00
9041;DHT22;4555;49.918;7.012;2022-08-03T12:33:25;38.00;1.00
9041;DHT22;4555;49.918;7.012;2022-08-03T12:36:04;37.60;1.00
9041;DHT22;4555;49.918;7.012;2022-08-03T12:38:32;37.50;1.00
9041;DHT22;4555;49.918;7.012;2022-08-03T12:41:07;37.50;1.00
9041;DHT22;4555;49.918;7.012;2022-08-03T12:43:34;37.70;1.00
9041;DHT22;4555;49.918;7.012;2022-08-03T12:46:10;38.00;1.00
9041;DHT22;4555;49.918;7.012;2022-08-03T12:48:36;38.00;1.00
9041;DHT22;4555;49.918;7.012;2022-08-03T12:51:09;38.20;1.00
9041;DHT22;4555;49.918;7.012;2022-08-03T12:53:35;38.10;1.00
9041;DHT22;4555;49.918;7.012;2022-08-03T12:56:02;37.90;1.00
9041;DHT22;4555;49.918;7.012;2022-08-03T12:58:30;38.40;1.00
9041;DHT22;4555;49.918;7.012;2022-08-03T13:00:57;38.50;1.00
9041;DHT22;4555;49.918;7.012;2022-08-03T13:03:23;38.60;1.00
9041;DHT22;4555;49.918;7.012;2022-08-03T13:05:49;38.50;1.00
9041;DHT22;4555;49.918;7.012;2022-08-03T13:08:23;38.30;1.00
9041;DHT22;4555;49.918;7.012;2022-08-03T13:10:50;38.20;1.00
9041;DHT22;4555;49.918;7.012;2022-08-03T13:13:15;38.30;1.00
9041;DHT22;4555;49.918;7.012;2022-08-03T13:15:41;38.30;1.00
9041;DHT22;4555;49.918;7.012;2022-08-03T13:18:07;38.60;1.00
9041;DHT22;4555;49.918;7.012;2022-08-03T13:20:34;38.80;1.00
9041;DHT22;4555;49.918;7.012;2022-08-03T13:23:00;38.70;1.00
9041;DHT22;4555;49.918;7.012;2022-08-03T13:25:25;38.90;1.00
9041;DHT22;4555;49.918;7.012;2022-08-03T13:27:51;39.00;1.00
9041;DHT22;4555;49.918;7.012;2022-08-03T13:30:17;39.00;1.00
9041;DHT22;4555;49.918;7.012;2022-08-03T13:32:43;39.10;1.00
9041;DHT22;4555;49.918;7.012;2022-08-03T13:35:09;39.50;1.00
9041;DHT22;4555;49.918;7.012;2022-08-03T13:37:35;39.70;1.00
9041;DHT22;4555;49.918;7.012;2022-08-03T13:40:03;39.80;1.00
9041;DHT22;4555;49.918;7.012;2022-08-03T13:42:31;38.70;1.00
9041;DHT22;4555;49.918;7.012;2022-08-03T13:44:57;38.60;1.00
9041;DHT22;4555;49.918;7.012;2022-08-03T13:47:23;39.20;1.00
9041;DHT22;4555;49.918;7.012;2022-08-03T13:49:49;39.70;1.00
9041;DHT22;4555;49.918;7.012;2022-08-03T13:52:18;39.80;1.00
9041;DHT22;4555;49.918;7.012;2022-08-03T13:54:44;39.60;1.00
9041;DHT22;4555;49.918;7.012;2022-08-03T13:57:10;39.70;1.00
9041;DHT22;4555;49.918;7.012;2022-08-03T13:59:36;39.40;1.00
9041;DHT22;4555;49.918;7.012;2022-08-03T14:02:02;39.60;1.00
9041;DHT22;4555;49.918;7.012;2022-08-03T14:04:28;40.40;1.00
9041;DHT22;4555;49.918;7.012;2022-08-03T14:06:54;40.90;1.00
9041;DHT22;4555;49.918;7.012;2022-08-03T14:09:20;40.80;1.00
9041;DHT22;4555;49.918;7.012;2022-08-03T14:11:45;41.10;1.00
9041;DHT22;4555;49.918;7.012;2022-08-03T14:14:11;41.10;1.00
9041;DHT22;4555;49.918;7.012;2022-08-03T14:16:37;40.80;1.00
9041;DHT22;4555;49.918;7.012;2022-08-03T14:19:03;41.20;1.00
9041;DHT22;4555;49.918;7.012;2022-08-03T14:21:29;38.60;1.00
9041;DHT22;4555;49.918;7.012;2022-08-03T14:23:55;38.90;1.00
9041;DHT22;4555;49.918;7.012;2022-08-03T14:26:21;39.80;1.00
9041;DHT22;4555;49.918;7.012;2022-08-03T14:28:47;40.30;1.00
9041;DHT22;4555;49.918;7.012;2022-08-03T14:31:12;40.40;1.00
9041;DHT22;4555;49.918;7.012;2022-08-03T14:33:38;40.90;1.00
9041;DHT22;4555;49.918;7.012;2022-08-03T14:36:04;40.80;1.00
9041;DHT22;4555;49.918;7.012;2022-08-03T14:38:30;41.40;1.00
9041;DHT22;4555;49.918;7.012;2022-08-03T14:40:55;42.60;1.00
9041;DHT22;4555;49.918;7.012;2022-08-03T14:43:21;43.60;1.00
9041;DHT22;4555;49.918;7.012;2022-08-03T14:45:48;43.40;1.00
9041;DHT22;4555;49.918;7.012;2022-08-03T14:48:17;43.00;1.00
9041;DHT22;4555;49.918;7.012;2022-08-03T14:50:42;42.90;1.00
9041;DHT22;4555;49.918;7.012;2022-08-03T14:53:08;42.50;1.00
9041;DHT22;4555;49.918;7.012;2022-08-03T14:55:34;42.30;1.00
9041;DHT22;4555;49.918;7.012;2022-08-03T14:57:59;42.40;1.00
9041;DHT22;4555;49.918;7.012;2022-08-03T15:00:30;42.50;1.00
9041;DHT22;4555;49.918;7.012;2022-08-03T15:02:56;43.00;1.00
9041;DHT22;4555;49.918;7.012;2022-08-03T15:05:22;43.50;1.00
9041;DHT22;4555;49.918;7.012;2022-08-03T15:07:47;43.60;1.00
9041;DHT22;4555;49.918;7.012;2022-08-03T15:10:13;43.50;1.00
9041;DHT22;4555;49.918;7.012;2022-08-03T15:12:39;43.40;1.00
9041;DHT22;4555;49.918;7.012;2022-08-03T15:15:04;43.30;1.00
9041;DHT22;4555;49.918;7.012;2022-08-03T15:17:30;43.50;1.00
9041;DHT22;4555;49.918;7.012;2022-08-03T15:19:56;43.50;1.00
9041;DHT22;4555;49.918;7.012;2022-08-03T15:22:22;43.50;1.00
9041;DHT22;4555;49.918;7.012;2022-08-03T15:24:48;42.70;1.00
9041;DHT22;4555;49.918;7.012;2022-08-03T15:27:13;42.60;1.00
9041;DHT22;4555;49.918;7.012;2022-08-03T15:29:39;41.10;1.00
9041;DHT22;4555;49.918;7.012;2022-08-03T15:32:05;40.80;1.00
9041;DHT22;4555;49.918;7.012;2022-08-03T15:34:30;40.60;1.00
9041;DHT22;4555;49.918;7.012;2022-08-03T15:36:56;40.30;1.00
9041;DHT22;4555;49.918;7.012;2022-08-03T15:39:22;40.20;1.00
9041;DHT22;4555;49.918;7.012;2022-08-03T15:41:47;40.30;1.00
9041;DHT22;4555;49.918;7.012;2022-08-03T15:44:18;40.40;1.00
9041;DHT22;4555;49.918;7.012;2022-08-03T15:46:44;40.80;1.00
9041;DHT22;4555;49.918;7.012;2022-08-03T15:49:10;40.30;1.00
9041;DHT22;4555;49.918;7.012;2022-08-03T15:51:35;40.30;1.00
9041;DHT22;4555;49.918;7.012;2022-08-03T15:54:03;40.10;1.00
9041;DHT22;4555;49.918;7.012;2022-08-03T15:56:29;40.00;1.00
9041;DHT22;4555;49.918;7.012;2022-08-03T15:58:55;39.70;1.00
9041;DHT22;4555;49.918;7.012;2022-08-03T16:01:22;39.40;1.00
9041;DHT22;4555;49.918;7.012;2022-08-03T16:03:50;39.20;1.00
9041;DHT22;4555;49.918;7.012;2022-08-03T16:06:16;39.30;1.00
9041;DHT22;4555;49.918;7.012;2022-08-03T16:08:42;39.70;1.00
9041;DHT22;4555;49.918;7.012;2022-08-03T16:11:09;39.70;1.00
9041;DHT22;4555;49.918;7.012;2022-08-03T16:13:35;40.00;1.00
9041;DHT22;4555;49.918;7.012;2022-08-03T16:16:01;39.80;1.00
9041;DHT22;4555;49.918;7.012;2022-08-03T16:18:29;39.50;1.00
9041;DHT22;4555;49.918;7.012;2022-08-03T16:20:56;39.10;1.00
9041;DHT22;4555;49.918;7.012;2022-08-03T16:23:22;38.20;1.00
9041;DHT22;4555;49.918;7.012;2022-08-03T16:25:48;38.30;1.00
9041;DHT22;4555;49.918;7.012;2022-08-03T16:28:14;38.40;1.00
9041;DHT22;4555;49.918;7.012;2022-08-03T16:30:41;38.30;1.00
9041;DHT22;4555;49.918;7.012;2022-08-03T16:33:08;38.30;1.00
9041;DHT22;4555;49.918;7.012;2022-08-03T16:35:35;38.60;1.00
9041;DHT22;4555;49.918;7.012;2022-08-03T16:38:00;38.70;1.00
9041;DHT22;4555;49.918;7.012;2022-08-03T16:40:26;38.90;1.00
9041;DHT22;4555;49.918;7.012;2022-08-03T16:42:52;38.80;1.00
9041;DHT22;4555;49.918;7.012;2022-08-03T16:45:18;38.70;1.00
9041;DHT22;4555;49.918;7.012;2022-08-03T16:47:44;38.60;1.00
9041;DHT22;4555;49.918;7.012;2022-08-03T16:50:09;38.10;1.00
9041;DHT22;4555;49.918;7.012;2022-08-03T16:52:35;37.60;1.00
9041;DHT22;4555;49.918;7.012;2022-08-03T16:55:02;37.20;1.00
9041;DHT22;4555;49.918;7.012;2022-08-03T16:57:28;36.80;1.00
9041;DHT22;4555;49.918;7.012;2022-08-03T16:59:54;36.60;1.00
9041;DHT22;4555;49.918;7.012;2022-08-03T17:02:21;36.40;1.00
9041;DHT22;4555;49.918;7.012;2022-08-03T17:04:48;36.30;1.00
9041;DHT22;4555;49.918;7.012;2022-08-03T17:07:15;36.20;1.00
9041;DHT22;4555;49.918;7.012;2022-08-03T17:09:43;36.10;1.00
9041;DHT22;4555;49.918;7.012;2022-08-03T17:14:43;35.60;1.00
9041;DHT22;4555;49.918;7.012;2022-08-03T17:17:22;35.70;1.00
9041;DHT22;4555;49.918;7.012;2022-08-03T17:19:51;35.60;1.00
9041;DHT22;4555;49.918;7.012;2022-08-03T17:22:18;35.30;1.00
9041;DHT22;4555;49.918;7.012;2022-08-03T17:24:49;35.50;1.00
9041;DHT22;4555;49.918;7.012;2022-08-03T17:27:23;35.20;1.00
9041;DHT22;4555;49.918;7.012;2022-08-03T17:29:52;35.20;1.00
9041;DHT22;4555;49.918;7.012;2022-08-03T17:32:21;35.10;1.00
9041;DHT22;4555;49.918;7.012;2022-08-03T17:34:47;35.10;1.00
9041;DHT22;4555;49.918;7.012;2022-08-03T17:37:14;35.10;1.00
9041;DHT22;4555;49.918;7.012;2022-08-03T17:39:41;35.00;1.00
9041;DHT22;4555;49.918;7.012;2022-08-03T17:42:09;35.00;1.00
9041;DHT22;4555;49.918;7.012;2022-08-03T17:44:35;34.90;1.00
9041;DHT22;4555;49.918;7.012;2022-08-03T17:49:27;34.90;1.00
9041;DHT22;4555;49.918;7.012;2022-08-03T17:52:00;34.80;1.00
9041;DHT22;4555;49.918;7.012;2022-08-03T17:57:35;34.60;1.00
9041;DHT22;4555;49.918;7.012;2022-08-03T18:00:08;34.60;1.00
9041;DHT22;4555;49.918;7.012;2022-08-03T18:05:58;34.40;1.00
9041;DHT22;4555;49.918;7.012;2022-08-03T18:08:28;34.20;1.00
9041;DHT22;4555;49.918;7.012;2022-08-03T18:10:59;34.20;1.00
9041;DHT22;4555;49.918;7.012;2022-08-03T18:13:30;34.00;1.00
9041;DHT22;4555;49.918;7.012;2022-08-03T18:16:03;33.90;1.00
9041;DHT22;4555;49.918;7.012;2022-08-03T18:18:36;33.60;1.00
9041;DHT22;4555;49.918;7.012;2022-08-03T18:21:04;33.60;1.00
9041;DHT22;4555;49.918;7.012;2022-08-03T18:23:31;33.50;1.00
9041;DHT22;4555;49.918;7.012;2022-08-03T18:28:25;33.30;1.00
9041;DHT22;4555;49.918;7.012;2022-08-03T18:30:51;33.20;1.00
9041;DHT22;4555;49.918;7.012;2022-08-03T18:33:18;33.00;1.00
9041;DHT22;4555;49.918;7.012;2022-08-03T18:38:12;32.60;1.00
9041;DHT22;4555;49.918;7.012;2022-08-03T18:40:41;32.50;1.00
9041;DHT22;4555;49.918;7.012;2022-08-03T18:43:07;32.20;1.00
9041;DHT22;4555;49.918;7.012;2022-08-03T18:45:37;31.90;1.00
9041;DHT22;4555;49.918;7.012;2022-08-03T18:48:22;31.70;1.00
9041;DHT22;4555;49.918;7.012;2022-08-03T18:51:00;31.60;1.00
9041;DHT22;4555;49.918;7.012;2022-08-03T18:56:45;31.40;1.00
9041;DHT22;4555;49.918;7.012;2022-08-03T18:59:25;31.20;1.00
9041;DHT22;4555;49.918;7.012;2022-08-03T19:01:54;31.00;1.00
9041;DHT22;4555;49.918;7.012;2022-08-03T19:04:45;30.80;1.00
9041;DHT22;4555;49.918;7.012;2022-08-03T19:07:16;30.50;1.00
9041;DHT22;4555;49.918;7.012;2022-08-03T19:09:46;30.30;1.00
9041;DHT22;4555;49.918;7.012;2022-08-03T19:12:21;30.20;1.00
9041;DHT22;4555;49.918;7.012;2022-08-03T19:15:14;30.00;1.00
9041;DHT22;4555;49.918;7.012;2022-08-03T19:17:43;29.90;1.00
9041;DHT22;4555;49.918;7.012;2022-08-03T19:20:09;29.80;1.00
9041;DHT22;4555;49.918;7.012;2022-08-03T19:22:38;29.60;1.00
9041;DHT22;4555;49.918;7.012;2022-08-03T19:25:06;29.50;1.00
9041;DHT22;4555;49.918;7.012;2022-08-03T19:27:34;29.40;1.00
9041;DHT22;4555;49.918;7.012;2022-08-03T19:30:03;29.40;1.00
9041;DHT22;4555;49.918;7.012;2022-08-03T19:32:30;29.30;1.00
9041;DHT22;4555;49.918;7.012;2022-08-03T19:34:58;29.20;1.00
9041;DHT22;4555;49.918;7.012;2022-08-03T19:42:30;28.90;1.00
9041;DHT22;4555;49.918;7.012;2022-08-03T19:45:04;28.80;1.00
9041;DHT22;4555;49.918;7.012;2022-08-03T19:47:40;28.70;1.00